RJOO(METAR)
09/15 20:00
METAR RJOO 151100Z 01008KT 330V040 9999 FEW035 27/19 Q1006 RMK
1CU035 A2972=
戻る
トップページへ戻る
IMOC Co,.Ltd.